sensor_id;sensor_type;location;lat;lon;timestamp;P1;durP1;ratioP1;P2;durP2;ratioP2
80241;SDS011;69556;45.004;7.532;2023-05-20T00:00:23;1.88;;;1.38;;
80241;SDS011;69556;45.004;7.532;2023-05-20T00:02:49;1.33;;;1.23;;
80241;SDS011;69556;45.004;7.532;2023-05-20T00:05:14;2.20;;;1.10;;
80241;SDS011;69556;45.004;7.532;2023-05-20T00:07:40;1.48;;;1.38;;
80241;SDS011;69556;45.004;7.532;2023-05-20T00:10:05;2.13;;;1.67;;
80241;SDS011;69556;45.004;7.532;2023-05-20T00:12:31;1.75;;;1.38;;
80241;SDS011;69556;45.004;7.532;2023-05-20T00:14:56;2.42;;;1.33;;
80241;SDS011;69556;45.004;7.532;2023-05-20T00:17:22;1.90;;;1.48;;
80241;SDS011;69556;45.004;7.532;2023-05-20T00:19:47;1.40;;;1.25;;
80241;SDS011;69556;45.004;7.532;2023-05-20T00:22:13;3.43;;;1.33;;
80241;SDS011;69556;45.004;7.532;2023-05-20T00:24:38;1.40;;;1.30;;
80241;SDS011;69556;45.004;7.532;2023-05-20T00:27:03;1.57;;;1.23;;
80241;SDS011;69556;45.004;7.532;2023-05-20T00:29:29;1.70;;;1.52;;
80241;SDS011;69556;45.004;7.532;2023-05-20T00:31:54;2.58;;;1.40;;
80241;SDS011;69556;45.004;7.532;2023-05-20T00:34:20;2.70;;;1.30;;
80241;SDS011;69556;45.004;7.532;2023-05-20T00:36:45;1.53;;;1.30;;
80241;SDS011;69556;45.004;7.532;2023-05-20T00:39:10;2.00;;;1.40;;
80241;SDS011;69556;45.004;7.532;2023-05-20T00:41:36;2.03;;;1.52;;
80241;SDS011;69556;45.004;7.532;2023-05-20T00:44:02;1.55;;;1.35;;
80241;SDS011;69556;45.004;7.532;2023-05-20T00:46:27;1.25;;;0.93;;
80241;SDS011;69556;45.004;7.532;2023-05-20T00:48:53;1.23;;;1.13;;
80241;SDS011;69556;45.004;7.532;2023-05-20T00:51:19;2.03;;;1.00;;
80241;SDS011;69556;45.004;7.532;2023-05-20T00:53:45;2.05;;;1.15;;
80241;SDS011;69556;45.004;7.532;2023-05-20T00:56:11;1.33;;;1.20;;
80241;SDS011;69556;45.004;7.532;2023-05-20T00:58:37;2.60;;;1.30;;
80241;SDS011;69556;45.004;7.532;2023-05-20T01:01:03;3.00;;;1.55;;
80241;SDS011;69556;45.004;7.532;2023-05-20T01:03:29;1.67;;;1.27;;
80241;SDS011;69556;45.004;7.532;2023-05-20T01:05:54;1.10;;;1.00;;
80241;SDS011;69556;45.004;7.532;2023-05-20T01:08:20;1.83;;;1.63;;
80241;SDS011;69556;45.004;7.532;2023-05-20T01:10:48;1.60;;;1.23;;
80241;SDS011;69556;45.004;7.532;2023-05-20T01:13:20;2.95;;;1.33;;
80241;SDS011;69556;45.004;7.532;2023-05-20T01:15:48;1.73;;;1.45;;
80241;SDS011;69556;45.004;7.532;2023-05-20T01:18:15;1.30;;;1.20;;
80241;SDS011;69556;45.004;7.532;2023-05-20T01:20:45;4.32;;;0.90;;
80241;SDS011;69556;45.004;7.532;2023-05-20T01:23:13;1.73;;;1.20;;
80241;SDS011;69556;45.004;7.532;2023-05-20T01:25:39;2.95;;;1.20;;
80241;SDS011;69556;45.004;7.532;2023-05-20T01:28:06;1.77;;;1.23;;
80241;SDS011;69556;45.004;7.532;2023-05-20T01:30:34;2.63;;;1.40;;
80241;SDS011;69556;45.004;7.532;2023-05-20T01:33:06;2.13;;;1.38;;
80241;SDS011;69556;45.004;7.532;2023-05-20T01:35:35;2.80;;;1.92;;
80241;SDS011;69556;45.004;7.532;2023-05-20T01:38:02;1.77;;;1.35;;
80241;SDS011;69556;45.004;7.532;2023-05-20T01:40:29;1.45;;;1.20;;
80241;SDS011;69556;45.004;7.532;2023-05-20T01:42:55;2.67;;;1.80;;
80241;SDS011;69556;45.004;7.532;2023-05-20T01:45:22;2.53;;;1.70;;
80241;SDS011;69556;45.004;7.532;2023-05-20T01:47:49;2.95;;;2.10;;
80241;SDS011;69556;45.004;7.532;2023-05-20T01:50:14;3.28;;;1.60;;
80241;SDS011;69556;45.004;7.532;2023-05-20T01:52:39;2.43;;;1.67;;
80241;SDS011;69556;45.004;7.532;2023-05-20T01:55:05;3.63;;;1.93;;
80241;SDS011;69556;45.004;7.532;2023-05-20T01:57:30;2.03;;;1.52;;
80241;SDS011;69556;45.004;7.532;2023-05-20T01:59:56;1.75;;;1.42;;
80241;SDS011;69556;45.004;7.532;2023-05-20T02:02:21;3.83;;;2.13;;
80241;SDS011;69556;45.004;7.532;2023-05-20T02:04:47;2.63;;;1.70;;
80241;SDS011;69556;45.004;7.532;2023-05-20T02:07:14;2.15;;;1.65;;
80241;SDS011;69556;45.004;7.532;2023-05-20T02:09:40;2.70;;;1.52;;
80241;SDS011;69556;45.004;7.532;2023-05-20T02:12:07;3.78;;;1.60;;
80241;SDS011;69556;45.004;7.532;2023-05-20T02:14:33;2.10;;;1.65;;
80241;SDS011;69556;45.004;7.532;2023-05-20T02:16:58;2.00;;;1.47;;
80241;SDS011;69556;45.004;7.532;2023-05-20T02:19:23;2.17;;;1.47;;
80241;SDS011;69556;45.004;7.532;2023-05-20T02:21:49;1.42;;;1.33;;
80241;SDS011;69556;45.004;7.532;2023-05-20T02:24:15;1.70;;;1.25;;
80241;SDS011;69556;45.004;7.532;2023-05-20T02:26:40;1.65;;;1.48;;
80241;SDS011;69556;45.004;7.532;2023-05-20T02:29:06;2.17;;;1.55;;
80241;SDS011;69556;45.004;7.532;2023-05-20T02:31:31;1.80;;;1.30;;
80241;SDS011;69556;45.004;7.532;2023-05-20T02:33:57;4.47;;;1.58;;
80241;SDS011;69556;45.004;7.532;2023-05-20T02:36:22;1.45;;;1.33;;
80241;SDS011;69556;45.004;7.532;2023-05-20T02:38:48;1.90;;;1.52;;
80241;SDS011;69556;45.004;7.532;2023-05-20T02:41:13;1.60;;;1.20;;
80241;SDS011;69556;45.004;7.532;2023-05-20T02:43:38;1.60;;;1.50;;
80241;SDS011;69556;45.004;7.532;2023-05-20T02:46:04;2.15;;;1.30;;
80241;SDS011;69556;45.004;7.532;2023-05-20T02:48:30;1.40;;;1.20;;
80241;SDS011;69556;45.004;7.532;2023-05-20T02:50:57;1.40;;;1.10;;
80241;SDS011;69556;45.004;7.532;2023-05-20T02:53:23;1.85;;;1.30;;
80241;SDS011;69556;45.004;7.532;2023-05-20T02:55:48;1.35;;;1.23;;
80241;SDS011;69556;45.004;7.532;2023-05-20T02:58:14;2.70;;;1.20;;
80241;SDS011;69556;45.004;7.532;2023-05-20T03:00:40;1.98;;;1.52;;
80241;SDS011;69556;45.004;7.532;2023-05-20T03:03:06;1.42;;;1.25;;
80241;SDS011;69556;45.004;7.532;2023-05-20T03:05:32;2.63;;;1.65;;
80241;SDS011;69556;45.004;7.532;2023-05-20T03:07:57;1.55;;;1.30;;
80241;SDS011;69556;45.004;7.532;2023-05-20T03:10:23;1.70;;;1.38;;
80241;SDS011;69556;45.004;7.532;2023-05-20T03:12:48;1.67;;;1.52;;
80241;SDS011;69556;45.004;7.532;2023-05-20T03:15:13;1.53;;;1.37;;
80241;SDS011;69556;45.004;7.532;2023-05-20T03:17:39;2.15;;;1.42;;
80241;SDS011;69556;45.004;7.532;2023-05-20T03:20:04;1.90;;;1.42;;
80241;SDS011;69556;45.004;7.532;2023-05-20T03:22:31;1.55;;;1.30;;
80241;SDS011;69556;45.004;7.532;2023-05-20T03:24:56;4.97;;;1.90;;
80241;SDS011;69556;45.004;7.532;2023-05-20T03:27:24;2.35;;;1.40;;
80241;SDS011;69556;45.004;7.532;2023-05-20T03:29:50;2.72;;;1.73;;
80241;SDS011;69556;45.004;7.532;2023-05-20T03:32:18;2.88;;;1.70;;
80241;SDS011;69556;45.004;7.532;2023-05-20T03:34:44;1.98;;;1.33;;
80241;SDS011;69556;45.004;7.532;2023-05-20T03:37:10;4.18;;;2.03;;
80241;SDS011;69556;45.004;7.532;2023-05-20T03:39:35;2.65;;;1.40;;
80241;SDS011;69556;45.004;7.532;2023-05-20T03:42:01;3.07;;;1.67;;
80241;SDS011;69556;45.004;7.532;2023-05-20T03:44:26;2.35;;;1.42;;
80241;SDS011;69556;45.004;7.532;2023-05-20T03:46:51;2.67;;;1.27;;
80241;SDS011;69556;45.004;7.532;2023-05-20T03:49:17;2.40;;;1.50;;
80241;SDS011;69556;45.004;7.532;2023-05-20T03:51:42;3.23;;;1.30;;
80241;SDS011;69556;45.004;7.532;2023-05-20T03:54:07;1.52;;;1.40;;
80241;SDS011;69556;45.004;7.532;2023-05-20T03:56:33;6.40;;;1.48;;
80241;SDS011;69556;45.004;7.532;2023-05-20T03:58:58;4.43;;;2.07;;
80241;SDS011;69556;45.004;7.532;2023-05-20T04:01:23;3.55;;;1.55;;
80241;SDS011;69556;45.004;7.532;2023-05-20T04:03:49;1.95;;;1.63;;
80241;SDS011;69556;45.004;7.532;2023-05-20T04:06:15;4.05;;;1.52;;
80241;SDS011;69556;45.004;7.532;2023-05-20T04:08:40;4.28;;;1.35;;
80241;SDS011;69556;45.004;7.532;2023-05-20T04:11:06;1.95;;;1.42;;
80241;SDS011;69556;45.004;7.532;2023-05-20T04:13:31;2.67;;;1.55;;
80241;SDS011;69556;45.004;7.532;2023-05-20T04:15:57;2.33;;;1.73;;
80241;SDS011;69556;45.004;7.532;2023-05-20T04:18:22;3.20;;;1.63;;
80241;SDS011;69556;45.004;7.532;2023-05-20T04:20:48;2.15;;;1.30;;
80241;SDS011;69556;45.004;7.532;2023-05-20T04:23:14;1.23;;;1.10;;
80241;SDS011;69556;45.004;7.532;2023-05-20T04:25:39;1.35;;;1.20;;
80241;SDS011;69556;45.004;7.532;2023-05-20T04:28:06;1.92;;;1.15;;
80241;SDS011;69556;45.004;7.532;2023-05-20T04:30:31;2.10;;;1.45;;
80241;SDS011;69556;45.004;7.532;2023-05-20T04:32:57;2.83;;;1.13;;
80241;SDS011;69556;45.004;7.532;2023-05-20T04:35:23;1.67;;;1.35;;
80241;SDS011;69556;45.004;7.532;2023-05-20T04:37:49;2.50;;;1.50;;
80241;SDS011;69556;45.004;7.532;2023-05-20T04:40:18;1.88;;;1.40;;
80241;SDS011;69556;45.004;7.532;2023-05-20T04:42:43;3.78;;;1.40;;
80241;SDS011;69556;45.004;7.532;2023-05-20T04:45:09;2.05;;;1.40;;
80241;SDS011;69556;45.004;7.532;2023-05-20T04:47:36;1.80;;;1.25;;
80241;SDS011;69556;45.004;7.532;2023-05-20T04:50:06;1.23;;;1.10;;
80241;SDS011;69556;45.004;7.532;2023-05-20T04:52:35;2.13;;;1.42;;
80241;SDS011;69556;45.004;7.532;2023-05-20T04:55:02;3.45;;;1.83;;
80241;SDS011;69556;45.004;7.532;2023-05-20T04:57:29;2.80;;;1.23;;
80241;SDS011;69556;45.004;7.532;2023-05-20T04:59:54;2.70;;;1.52;;
80241;SDS011;69556;45.004;7.532;2023-05-20T05:04:48;2.95;;;2.40;;
80241;SDS011;69556;45.004;7.532;2023-05-20T05:07:13;3.90;;;1.95;;
80241;SDS011;69556;45.004;7.532;2023-05-20T05:09:39;3.03;;;2.07;;
80241;SDS011;69556;45.004;7.532;2023-05-20T05:12:04;3.00;;;1.67;;
80241;SDS011;69556;45.004;7.532;2023-05-20T05:14:29;4.38;;;1.80;;
80241;SDS011;69556;45.004;7.532;2023-05-20T05:16:55;3.87;;;1.67;;
80241;SDS011;69556;45.004;7.532;2023-05-20T05:19:20;2.57;;;1.60;;
80241;SDS011;69556;45.004;7.532;2023-05-20T05:21:46;2.40;;;1.60;;
80241;SDS011;69556;45.004;7.532;2023-05-20T05:24:12;3.90;;;1.70;;
80241;SDS011;69556;45.004;7.532;2023-05-20T05:26:37;4.18;;;1.92;;
80241;SDS011;69556;45.004;7.532;2023-05-20T05:29:03;3.80;;;2.40;;
80241;SDS011;69556;45.004;7.532;2023-05-20T05:31:28;2.90;;;1.60;;
80241;SDS011;69556;45.004;7.532;2023-05-20T05:33:53;7.23;;;1.83;;
80241;SDS011;69556;45.004;7.532;2023-05-20T05:36:19;5.03;;;2.10;;
80241;SDS011;69556;45.004;7.532;2023-05-20T05:38:44;2.65;;;1.63;;
80241;SDS011;69556;45.004;7.532;2023-05-20T05:41:09;3.07;;;1.73;;
80241;SDS011;69556;45.004;7.532;2023-05-20T05:43:35;2.67;;;1.50;;
80241;SDS011;69556;45.004;7.532;2023-05-20T05:46:00;3.23;;;2.10;;
80241;SDS011;69556;45.004;7.532;2023-05-20T05:48:26;6.15;;;2.17;;
80241;SDS011;69556;45.004;7.532;2023-05-20T05:50:51;2.73;;;1.60;;
80241;SDS011;69556;45.004;7.532;2023-05-20T05:53:16;2.95;;;2.15;;
80241;SDS011;69556;45.004;7.532;2023-05-20T05:55:42;3.60;;;2.30;;
80241;SDS011;69556;45.004;7.532;2023-05-20T05:58:07;3.08;;;2.10;;
80241;SDS011;69556;45.004;7.532;2023-05-20T06:00:33;5.43;;;2.40;;
80241;SDS011;69556;45.004;7.532;2023-05-20T06:02:58;4.60;;;2.35;;
80241;SDS011;69556;45.004;7.532;2023-05-20T06:05:23;4.25;;;2.35;;
80241;SDS011;69556;45.004;7.532;2023-05-20T06:07:49;4.25;;;2.53;;
80241;SDS011;69556;45.004;7.532;2023-05-20T06:10:14;2.90;;;2.00;;
80241;SDS011;69556;45.004;7.532;2023-05-20T06:12:39;6.40;;;2.80;;
80241;SDS011;69556;45.004;7.532;2023-05-20T06:15:05;4.10;;;2.50;;
80241;SDS011;69556;45.004;7.532;2023-05-20T06:17:31;5.60;;;2.88;;
80241;SDS011;69556;45.004;7.532;2023-05-20T06:19:57;4.10;;;2.85;;
80241;SDS011;69556;45.004;7.532;2023-05-20T06:22:22;4.65;;;2.42;;
80241;SDS011;69556;45.004;7.532;2023-05-20T06:24:47;3.88;;;2.60;;
80241;SDS011;69556;45.004;7.532;2023-05-20T06:27:13;5.97;;;2.80;;
80241;SDS011;69556;45.004;7.532;2023-05-20T06:29:38;4.40;;;2.97;;
80241;SDS011;69556;45.004;7.532;2023-05-20T06:32:03;4.80;;;2.43;;
80241;SDS011;69556;45.004;7.532;2023-05-20T06:34:29;4.43;;;3.10;;
80241;SDS011;69556;45.004;7.532;2023-05-20T06:36:55;3.50;;;2.80;;
80241;SDS011;69556;45.004;7.532;2023-05-20T06:39:20;4.23;;;2.37;;
80241;SDS011;69556;45.004;7.532;2023-05-20T06:41:45;4.68;;;2.35;;
80241;SDS011;69556;45.004;7.532;2023-05-20T06:44:11;3.60;;;2.28;;
80241;SDS011;69556;45.004;7.532;2023-05-20T06:46:36;4.78;;;2.70;;
80241;SDS011;69556;45.004;7.532;2023-05-20T06:49:02;3.65;;;2.13;;
80241;SDS011;69556;45.004;7.532;2023-05-20T06:51:27;3.85;;;2.30;;
80241;SDS011;69556;45.004;7.532;2023-05-20T06:53:53;4.50;;;2.38;;
80241;SDS011;69556;45.004;7.532;2023-05-20T06:56:18;3.67;;;2.30;;
80241;SDS011;69556;45.004;7.532;2023-05-20T06:58:43;4.00;;;2.35;;
80241;SDS011;69556;45.004;7.532;2023-05-20T07:01:09;5.68;;;2.40;;
80241;SDS011;69556;45.004;7.532;2023-05-20T07:03:34;3.20;;;2.30;;
80241;SDS011;69556;45.004;7.532;2023-05-20T07:06:00;4.18;;;2.30;;
80241;SDS011;69556;45.004;7.532;2023-05-20T07:08:25;3.67;;;2.63;;
80241;SDS011;69556;45.004;7.532;2023-05-20T07:10:50;5.93;;;2.30;;
80241;SDS011;69556;45.004;7.532;2023-05-20T07:13:16;4.17;;;2.73;;
80241;SDS011;69556;45.004;7.532;2023-05-20T07:15:41;5.10;;;2.90;;
80241;SDS011;69556;45.004;7.532;2023-05-20T07:18:10;7.90;;;3.33;;
80241;SDS011;69556;45.004;7.532;2023-05-20T07:20:35;5.33;;;2.93;;
80241;SDS011;69556;45.004;7.532;2023-05-20T07:23:01;2.97;;;2.08;;
80241;SDS011;69556;45.004;7.532;2023-05-20T07:25:28;2.65;;;1.75;;
80241;SDS011;69556;45.004;7.532;2023-05-20T07:27:53;3.67;;;1.88;;
80241;SDS011;69556;45.004;7.532;2023-05-20T07:30:18;2.57;;;1.87;;
80241;SDS011;69556;45.004;7.532;2023-05-20T07:32:44;6.68;;;1.98;;
80241;SDS011;69556;45.004;7.532;2023-05-20T07:35:09;2.20;;;1.30;;
80241;SDS011;69556;45.004;7.532;2023-05-20T07:37:34;2.47;;;1.20;;
80241;SDS011;69556;45.004;7.532;2023-05-20T07:40:00;1.45;;;1.27;;
80241;SDS011;69556;45.004;7.532;2023-05-20T07:42:25;2.10;;;1.23;;
80241;SDS011;69556;45.004;7.532;2023-05-20T07:44:51;1.47;;;1.23;;
80241;SDS011;69556;45.004;7.532;2023-05-20T07:47:16;1.77;;;1.20;;
80241;SDS011;69556;45.004;7.532;2023-05-20T07:49:41;2.22;;;1.30;;
80241;SDS011;69556;45.004;7.532;2023-05-20T07:52:08;1.10;;;1.02;;
80241;SDS011;69556;45.004;7.532;2023-05-20T07:54:34;1.60;;;1.23;;
80241;SDS011;69556;45.004;7.532;2023-05-20T07:56:59;1.63;;;1.27;;
80241;SDS011;69556;45.004;7.532;2023-05-20T07:59:25;2.95;;;1.88;;
80241;SDS011;69556;45.004;7.532;2023-05-20T08:01:50;1.50;;;1.20;;
80241;SDS011;69556;45.004;7.532;2023-05-20T08:04:15;1.73;;;1.30;;
80241;SDS011;69556;45.004;7.532;2023-05-20T08:06:41;0.90;;;0.90;;
80241;SDS011;69556;45.004;7.532;2023-05-20T08:09:08;3.28;;;1.38;;
80241;SDS011;69556;45.004;7.532;2023-05-20T08:11:34;1.83;;;1.00;;
80241;SDS011;69556;45.004;7.532;2023-05-20T08:13:59;1.73;;;1.02;;
80241;SDS011;69556;45.004;7.532;2023-05-20T08:16:26;1.90;;;0.93;;
80241;SDS011;69556;45.004;7.532;2023-05-20T08:18:51;1.73;;;1.10;;
80241;SDS011;69556;45.004;7.532;2023-05-20T08:21:16;1.10;;;0.80;;
80241;SDS011;69556;45.004;7.532;2023-05-20T08:23:42;1.80;;;1.03;;
80241;SDS011;69556;45.004;7.532;2023-05-20T08:26:07;1.90;;;1.17;;
80241;SDS011;69556;45.004;7.532;2023-05-20T08:28:33;1.63;;;1.20;;
80241;SDS011;69556;45.004;7.532;2023-05-20T08:31:01;2.35;;;1.13;;
80241;SDS011;69556;45.004;7.532;2023-05-20T08:33:26;2.30;;;1.43;;
80241;SDS011;69556;45.004;7.532;2023-05-20T08:35:51;1.55;;;1.15;;
80241;SDS011;69556;45.004;7.532;2023-05-20T08:38:17;1.43;;;1.30;;
80241;SDS011;69556;45.004;7.532;2023-05-20T08:40:42;2.67;;;1.45;;
80241;SDS011;69556;45.004;7.532;2023-05-20T08:43:08;2.08;;;1.83;;
80241;SDS011;69556;45.004;7.532;2023-05-20T08:45:35;1.95;;;1.30;;
80241;SDS011;69556;45.004;7.532;2023-05-20T08:48:02;2.92;;;1.52;;
80241;SDS011;69556;45.004;7.532;2023-05-20T08:50:31;3.92;;;1.40;;
80241;SDS011;69556;45.004;7.532;2023-05-20T08:52:57;2.28;;;1.42;;
80241;SDS011;69556;45.004;7.532;2023-05-20T08:55:24;3.25;;;1.55;;
80241;SDS011;69556;45.004;7.532;2023-05-20T08:57:54;2.05;;;1.52;;
80241;SDS011;69556;45.004;7.532;2023-05-20T09:00:20;1.45;;;1.33;;
80241;SDS011;69556;45.004;7.532;2023-05-20T09:02:51;2.80;;;1.70;;
80241;SDS011;69556;45.004;7.532;2023-05-20T09:05:17;5.35;;;2.28;;
80241;SDS011;69556;45.004;7.532;2023-05-20T09:07:43;3.13;;;2.00;;
80241;SDS011;69556;45.004;7.532;2023-05-20T09:10:08;3.03;;;2.15;;
80241;SDS011;69556;45.004;7.532;2023-05-20T09:12:35;3.08;;;2.22;;
80241;SDS011;69556;45.004;7.532;2023-05-20T09:15:00;2.35;;;1.80;;
80241;SDS011;69556;45.004;7.532;2023-05-20T09:17:26;5.80;;;1.90;;
80241;SDS011;69556;45.004;7.532;2023-05-20T09:19:51;4.60;;;1.83;;
80241;SDS011;69556;45.004;7.532;2023-05-20T09:22:24;2.95;;;1.80;;
80241;SDS011;69556;45.004;7.532;2023-05-20T09:24:51;4.55;;;2.40;;
80241;SDS011;69556;45.004;7.532;2023-05-20T09:27:17;6.28;;;2.05;;
80241;SDS011;69556;45.004;7.532;2023-05-20T09:29:43;4.00;;;2.83;;
80241;SDS011;69556;45.004;7.532;2023-05-20T09:32:09;4.18;;;2.28;;
80241;SDS011;69556;45.004;7.532;2023-05-20T09:34:35;6.13;;;3.60;;
80241;SDS011;69556;45.004;7.532;2023-05-20T09:37:01;4.63;;;2.80;;
80241;SDS011;69556;45.004;7.532;2023-05-20T09:39:28;5.53;;;3.33;;
80241;SDS011;69556;45.004;7.532;2023-05-20T09:42:01;5.60;;;3.20;;
80241;SDS011;69556;45.004;7.532;2023-05-20T09:44:36;5.50;;;3.40;;
80241;SDS011;69556;45.004;7.532;2023-05-20T09:47:02;10.30;;;4.50;;
80241;SDS011;69556;45.004;7.532;2023-05-20T09:49:31;5.25;;;3.55;;
80241;SDS011;69556;45.004;7.532;2023-05-20T09:51:59;6.95;;;3.40;;
80241;SDS011;69556;45.004;7.532;2023-05-20T09:54:26;4.07;;;3.35;;
80241;SDS011;69556;45.004;7.532;2023-05-20T09:56:53;6.43;;;3.35;;
80241;SDS011;69556;45.004;7.532;2023-05-20T09:59:19;6.00;;;3.55;;
80241;SDS011;69556;45.004;7.532;2023-05-20T10:01:45;5.53;;;3.67;;
80241;SDS011;69556;45.004;7.532;2023-05-20T10:04:11;7.73;;;3.77;;
80241;SDS011;69556;45.004;7.532;2023-05-20T10:06:49;5.20;;;3.50;;
80241;SDS011;69556;45.004;7.532;2023-05-20T10:18:25;7.72;;;3.58;;
80241;SDS011;69556;45.004;7.532;2023-05-20T10:21:00;5.05;;;3.00;;
80241;SDS011;69556;45.004;7.532;2023-05-20T10:23:29;6.47;;;3.38;;
80241;SDS011;69556;45.004;7.532;2023-05-20T10:25:55;5.95;;;3.30;;
80241;SDS011;69556;45.004;7.532;2023-05-20T10:28:36;5.53;;;3.42;;
80241;SDS011;69556;45.004;7.532;2023-05-20T10:31:13;5.43;;;3.30;;
80241;SDS011;69556;45.004;7.532;2023-05-20T10:33:45;5.68;;;3.42;;
80241;SDS011;69556;45.004;7.532;2023-05-20T10:36:21;6.60;;;3.53;;
80241;SDS011;69556;45.004;7.532;2023-05-20T10:38:58;6.53;;;3.85;;
80241;SDS011;69556;45.004;7.532;2023-05-20T10:41:24;7.80;;;4.07;;
80241;SDS011;69556;45.004;7.532;2023-05-20T10:46:30;7.07;;;3.50;;
80241;SDS011;69556;45.004;7.532;2023-05-20T10:48:56;4.88;;;3.35;;
80241;SDS011;69556;45.004;7.532;2023-05-20T10:51:21;6.03;;;3.25;;
80241;SDS011;69556;45.004;7.532;2023-05-20T10:53:50;4.93;;;3.08;;
80241;SDS011;69556;45.004;7.532;2023-05-20T10:56:18;5.00;;;3.30;;
80241;SDS011;69556;45.004;7.532;2023-05-20T10:58:45;4.43;;;3.03;;
80241;SDS011;69556;45.004;7.532;2023-05-20T11:01:11;5.45;;;3.30;;
80241;SDS011;69556;45.004;7.532;2023-05-20T11:03:39;8.13;;;3.35;;
80241;SDS011;69556;45.004;7.532;2023-05-20T11:06:11;5.95;;;3.58;;
80241;SDS011;69556;45.004;7.532;2023-05-20T11:08:37;5.18;;;3.13;;
80241;SDS011;69556;45.004;7.532;2023-05-20T11:11:03;5.15;;;3.28;;
80241;SDS011;69556;45.004;7.532;2023-05-20T11:13:28;4.72;;;3.53;;
80241;SDS011;69556;45.004;7.532;2023-05-20T11:15:55;5.55;;;3.53;;
80241;SDS011;69556;45.004;7.532;2023-05-20T11:18:20;6.70;;;3.38;;
80241;SDS011;69556;45.004;7.532;2023-05-20T11:20:45;4.80;;;3.10;;
80241;SDS011;69556;45.004;7.532;2023-05-20T11:23:12;6.25;;;3.58;;
80241;SDS011;69556;45.004;7.532;2023-05-20T11:25:39;7.28;;;3.42;;
80241;SDS011;69556;45.004;7.532;2023-05-20T11:28:08;5.68;;;3.50;;
80241;SDS011;69556;45.004;7.532;2023-05-20T11:30:36;7.57;;;3.75;;
80241;SDS011;69556;45.004;7.532;2023-05-20T11:33:02;5.72;;;3.30;;
80241;SDS011;69556;45.004;7.532;2023-05-20T11:35:29;4.60;;;3.20;;
80241;SDS011;69556;45.004;7.532;2023-05-20T11:40:29;6.80;;;3.33;;
80241;SDS011;69556;45.004;7.532;2023-05-20T11:42:58;6.20;;;3.30;;
80241;SDS011;69556;45.004;7.532;2023-05-20T11:45:25;5.90;;;3.45;;
80241;SDS011;69556;45.004;7.532;2023-05-20T11:48:00;7.10;;;3.35;;
80241;SDS011;69556;45.004;7.532;2023-05-20T11:50:33;5.30;;;3.20;;
80241;SDS011;69556;45.004;7.532;2023-05-20T11:53:01;4.45;;;2.95;;
80241;SDS011;69556;45.004;7.532;2023-05-20T11:55:27;8.98;;;3.65;;
80241;SDS011;69556;45.004;7.532;2023-05-20T11:57:53;5.60;;;3.40;;
80241;SDS011;69556;45.004;7.532;2023-05-20T12:00:19;4.93;;;2.78;;
80241;SDS011;69556;45.004;7.532;2023-05-20T12:02:44;5.68;;;3.53;;
80241;SDS011;69556;45.004;7.532;2023-05-20T12:05:10;5.68;;;3.60;;
80241;SDS011;69556;45.004;7.532;2023-05-20T12:07:36;10.68;;;4.18;;
80241;SDS011;69556;45.004;7.532;2023-05-20T12:10:02;8.70;;;4.10;;
80241;SDS011;69556;45.004;7.532;2023-05-20T12:12:28;8.48;;;4.53;;
80241;SDS011;69556;45.004;7.532;2023-05-20T12:14:53;5.23;;;4.03;;
80241;SDS011;69556;45.004;7.532;2023-05-20T12:17:18;8.05;;;4.53;;
80241;SDS011;69556;45.004;7.532;2023-05-20T12:19:44;6.63;;;4.22;;
80241;SDS011;69556;45.004;7.532;2023-05-20T12:22:09;6.85;;;4.40;;
80241;SDS011;69556;45.004;7.532;2023-05-20T12:24:34;9.57;;;4.13;;
80241;SDS011;69556;45.004;7.532;2023-05-20T12:27:00;6.63;;;3.97;;
80241;SDS011;69556;45.004;7.532;2023-05-20T12:29:28;9.52;;;4.80;;
80241;SDS011;69556;45.004;7.532;2023-05-20T12:31:53;8.75;;;5.07;;
80241;SDS011;69556;45.004;7.532;2023-05-20T12:34:18;19.40;;;5.37;;
80241;SDS011;69556;45.004;7.532;2023-05-20T12:36:44;9.83;;;4.97;;
80241;SDS011;69556;45.004;7.532;2023-05-20T12:39:10;10.10;;;5.18;;
80241;SDS011;69556;45.004;7.532;2023-05-20T12:41:36;8.07;;;5.60;;
80241;SDS011;69556;45.004;7.532;2023-05-20T12:44:01;7.45;;;5.53;;
80241;SDS011;69556;45.004;7.532;2023-05-20T12:46:27;8.32;;;5.78;;
80241;SDS011;69556;45.004;7.532;2023-05-20T12:48:52;8.18;;;5.65;;
80241;SDS011;69556;45.004;7.532;2023-05-20T12:51:18;7.60;;;4.87;;
80241;SDS011;69556;45.004;7.532;2023-05-20T12:53:44;9.13;;;4.32;;
80241;SDS011;69556;45.004;7.532;2023-05-20T12:56:10;8.13;;;4.47;;
80241;SDS011;69556;45.004;7.532;2023-05-20T12:58:35;7.10;;;4.60;;
80241;SDS011;69556;45.004;7.532;2023-05-20T13:01:00;6.63;;;4.53;;
80241;SDS011;69556;45.004;7.532;2023-05-20T13:03:26;6.97;;;4.55;;
80241;SDS011;69556;45.004;7.532;2023-05-20T13:05:51;6.93;;;4.03;;
80241;SDS011;69556;45.004;7.532;2023-05-20T13:08:16;5.03;;;4.30;;
80241;SDS011;69556;45.004;7.532;2023-05-20T13:10:42;7.23;;;4.03;;
80241;SDS011;69556;45.004;7.532;2023-05-20T13:13:07;4.80;;;3.60;;
80241;SDS011;69556;45.004;7.532;2023-05-20T13:15:32;6.70;;;4.17;;
80241;SDS011;69556;45.004;7.532;2023-05-20T13:17:58;5.55;;;4.00;;
80241;SDS011;69556;45.004;7.532;2023-05-20T13:20:25;6.70;;;3.95;;
80241;SDS011;69556;45.004;7.532;2023-05-20T13:22:50;6.55;;;4.05;;
80241;SDS011;69556;45.004;7.532;2023-05-20T13:25:16;8.00;;;4.93;;
80241;SDS011;69556;45.004;7.532;2023-05-20T13:27:41;5.32;;;3.90;;
80241;SDS011;69556;45.004;7.532;2023-05-20T13:30:06;5.37;;;4.00;;
80241;SDS011;69556;45.004;7.532;2023-05-20T13:32:32;5.32;;;3.90;;
80241;SDS011;69556;45.004;7.532;2023-05-20T13:34:58;4.95;;;3.47;;
80241;SDS011;69556;45.004;7.532;2023-05-20T13:37:23;5.60;;;3.85;;
80241;SDS011;69556;45.004;7.532;2023-05-20T13:39:49;5.78;;;3.70;;
80241;SDS011;69556;45.004;7.532;2023-05-20T13:42:15;5.22;;;3.83;;
80241;SDS011;69556;45.004;7.532;2023-05-20T13:44:40;8.70;;;3.78;;
80241;SDS011;69556;45.004;7.532;2023-05-20T13:47:06;4.53;;;3.50;;
80241;SDS011;69556;45.004;7.532;2023-05-20T13:49:31;5.73;;;4.23;;
80241;SDS011;69556;45.004;7.532;2023-05-20T13:51:56;4.47;;;3.27;;
80241;SDS011;69556;45.004;7.532;2023-05-20T13:54:22;5.30;;;3.57;;
80241;SDS011;69556;45.004;7.532;2023-05-20T13:56:47;5.87;;;4.13;;
80241;SDS011;69556;45.004;7.532;2023-05-20T13:59:13;6.10;;;4.03;;
80241;SDS011;69556;45.004;7.532;2023-05-20T14:01:38;7.10;;;3.92;;
80241;SDS011;69556;45.004;7.532;2023-05-20T14:04:08;5.90;;;4.28;;
80241;SDS011;69556;45.004;7.532;2023-05-20T14:06:34;5.10;;;3.70;;
80241;SDS011;69556;45.004;7.532;2023-05-20T14:09:01;4.97;;;3.22;;
80241;SDS011;69556;45.004;7.532;2023-05-20T14:11:28;6.10;;;3.83;;
80241;SDS011;69556;45.004;7.532;2023-05-20T14:13:53;5.47;;;4.05;;
80241;SDS011;69556;45.004;7.532;2023-05-20T14:16:19;6.27;;;4.00;;
80241;SDS011;69556;45.004;7.532;2023-05-20T14:18:44;5.00;;;3.17;;
80241;SDS011;69556;45.004;7.532;2023-05-20T14:21:10;5.23;;;3.20;;
80241;SDS011;69556;45.004;7.532;2023-05-20T14:23:35;4.05;;;3.10;;
80241;SDS011;69556;45.004;7.532;2023-05-20T14:26:01;6.38;;;3.28;;
80241;SDS011;69556;45.004;7.532;2023-05-20T14:28:26;3.60;;;2.83;;
80241;SDS011;69556;45.004;7.532;2023-05-20T14:30:51;5.50;;;3.10;;
80241;SDS011;69556;45.004;7.532;2023-05-20T14:33:18;4.13;;;2.72;;
80241;SDS011;69556;45.004;7.532;2023-05-20T14:35:43;4.60;;;3.23;;
80241;SDS011;69556;45.004;7.532;2023-05-20T14:38:08;4.65;;;3.10;;
80241;SDS011;69556;45.004;7.532;2023-05-20T14:40:34;4.10;;;3.10;;
80241;SDS011;69556;45.004;7.532;2023-05-20T14:42:59;4.65;;;3.28;;
80241;SDS011;69556;45.004;7.532;2023-05-20T14:45:25;4.60;;;2.90;;
80241;SDS011;69556;45.004;7.532;2023-05-20T14:47:50;4.63;;;2.80;;
80241;SDS011;69556;45.004;7.532;2023-05-20T14:50:15;5.73;;;3.27;;
80241;SDS011;69556;45.004;7.532;2023-05-20T14:52:41;3.83;;;2.90;;
80241;SDS011;69556;45.004;7.532;2023-05-20T14:55:06;4.25;;;3.15;;
80241;SDS011;69556;45.004;7.532;2023-05-20T14:57:32;7.10;;;3.53;;